createdAt,value
2023-08-26T00:01:58.457Z,6.70
2023-08-26T00:04:31.144Z,7.00
2023-08-26T00:07:04.234Z,7.00
2023-08-26T00:09:36.769Z,6.80
2023-08-26T00:12:10.064Z,7.60
2023-08-26T00:14:42.605Z,6.80
2023-08-26T00:17:15.095Z,6.50
2023-08-26T00:19:47.761Z,6.40
2023-08-26T00:22:20.242Z,6.50
2023-08-26T00:24:52.816Z,6.70
2023-08-26T00:27:25.295Z,6.60
2023-08-26T00:29:57.652Z,7.30
2023-08-26T00:32:32.189Z,7.20
2023-08-26T00:35:05.376Z,7.40
2023-08-26T00:37:38.466Z,7.60
2023-08-26T00:40:13.213Z,7.20
2023-08-26T00:42:45.630Z,6.90
2023-08-26T00:45:18.282Z,7.90
2023-08-26T00:47:50.599Z,7.20
2023-08-26T00:50:23.142Z,7.40
2023-08-26T00:52:55.658Z,7.60
2023-08-26T00:55:28.191Z,6.90
2023-08-26T00:58:00.537Z,7.60
2023-08-26T01:00:33.599Z,8.00
2023-08-26T01:03:06.145Z,7.80
2023-08-26T01:05:39.372Z,7.50
2023-08-26T01:08:12.370Z,7.80
2023-08-26T01:10:54.396Z,8.10
2023-08-26T01:13:32.296Z,7.90
2023-08-26T01:16:05.947Z,7.60
2023-08-26T01:18:39.327Z,7.50
2023-08-26T01:21:14.306Z,7.70
2023-08-26T01:23:49.427Z,8.50
2023-08-26T01:26:22.229Z,8.50
2023-08-26T01:28:54.537Z,8.30
2023-08-26T01:31:28.403Z,8.80
2023-08-26T01:34:08.794Z,8.30
2023-08-26T01:36:45.299Z,9.00
2023-08-26T01:39:19.683Z,9.10
2023-08-26T01:41:53.211Z,9.50
2023-08-26T01:44:26.946Z,9.30
2023-08-26T01:46:59.359Z,9.30
2023-08-26T01:49:31.670Z,9.00
2023-08-26T01:52:04.547Z,9.80
2023-08-26T01:54:36.773Z,9.30
2023-08-26T01:57:09.862Z,9.90
2023-08-26T01:59:42.055Z,9.40
2023-08-26T02:02:14.548Z,9.40
2023-08-26T02:04:46.897Z,9.90
2023-08-26T02:07:19.993Z,9.60
2023-08-26T02:09:52.434Z,10.40
2023-08-26T02:12:24.819Z,8.10
2023-08-26T02:14:57.224Z,9.00
2023-08-26T02:17:29.811Z,9.10
2023-08-26T02:20:02.441Z,8.60
2023-08-26T02:22:34.820Z,8.70
2023-08-26T02:25:09.289Z,8.90
2023-08-26T02:27:42.113Z,8.00
2023-08-26T02:30:16.487Z,8.30
2023-08-26T02:32:48.901Z,7.80
2023-08-26T02:35:21.327Z,8.00
2023-08-26T02:37:54.327Z,7.70
2023-08-26T02:40:26.877Z,8.80
2023-08-26T02:42:59.253Z,9.30
2023-08-26T02:45:31.548Z,8.40
2023-08-26T02:48:04.023Z,9.00
2023-08-26T02:50:39.042Z,9.10
2023-08-26T02:53:11.369Z,8.30
2023-08-26T02:55:43.681Z,8.10
2023-08-26T02:58:16.843Z,7.70
2023-08-26T03:00:49.126Z,9.20
2023-08-26T03:03:22.479Z,8.70
2023-08-26T03:05:59.636Z,9.50
2023-08-26T03:08:31.894Z,10.40
2023-08-26T03:11:06.195Z,10.00
2023-08-26T03:13:38.389Z,8.40
2023-08-26T03:16:13.049Z,8.10
2023-08-26T03:18:45.370Z,8.20
2023-08-26T03:21:17.621Z,8.50
2023-08-26T03:23:50.933Z,9.50
2023-08-26T03:26:23.402Z,10.00
2023-08-26T03:28:55.983Z,12.00
2023-08-26T03:31:28.434Z,10.80
2023-08-26T03:34:03.224Z,10.60
2023-08-26T03:36:35.514Z,9.70
2023-08-26T03:39:09.675Z,10.50
2023-08-26T03:41:42.628Z,10.10
2023-08-26T03:44:14.873Z,9.40
2023-08-26T03:46:47.182Z,9.60
2023-08-26T03:49:19.334Z,9.10
2023-08-26T03:51:53.285Z,10.30
2023-08-26T03:54:25.760Z,9.80
2023-08-26T03:56:58.015Z,9.10
2023-08-26T03:59:30.212Z,9.50
2023-08-26T04:02:04.216Z,9.60
2023-08-26T04:04:36.438Z,9.20
2023-08-26T04:07:09.511Z,9.50
2023-08-26T04:09:41.898Z,10.60
2023-08-26T04:12:14.424Z,9.50
2023-08-26T04:14:46.745Z,9.30
2023-08-26T04:17:19.100Z,9.20
2023-08-26T04:19:51.355Z,9.60
2023-08-26T04:22:23.578Z,9.70
2023-08-26T04:24:57.027Z,8.20
2023-08-26T04:27:29.796Z,8.90
2023-08-26T04:30:02.035Z,8.70
2023-08-26T04:32:35.775Z,8.80
2023-08-26T04:35:08.461Z,8.70
2023-08-26T04:37:40.912Z,9.00
2023-08-26T04:40:14.460Z,9.30
2023-08-26T04:42:46.963Z,9.10
2023-08-26T04:45:19.728Z,9.50
2023-08-26T04:47:52.470Z,7.70
2023-08-26T04:50:24.859Z,8.30
2023-08-26T04:52:57.217Z,8.50
2023-08-26T04:55:34.102Z,8.50
2023-08-26T04:58:10.980Z,9.20
2023-08-26T05:00:46.817Z,9.80
2023-08-26T05:03:19.224Z,9.40
2023-08-26T05:05:51.599Z,9.00
2023-08-26T05:08:23.962Z,9.00
2023-08-26T05:10:56.111Z,8.40
2023-08-26T05:13:28.484Z,8.70
2023-08-26T05:16:00.723Z,8.80
2023-08-26T05:18:33.503Z,8.50
2023-08-26T05:21:05.927Z,8.60
2023-08-26T05:23:38.196Z,8.80
2023-08-26T05:26:10.873Z,8.50
2023-08-26T05:28:43.243Z,8.20
2023-08-26T05:31:15.686Z,8.30
2023-08-26T05:33:48.251Z,7.40
2023-08-26T05:36:21.848Z,8.40
2023-08-26T05:38:54.523Z,7.70
2023-08-26T05:41:27.215Z,8.00
2023-08-26T05:43:59.741Z,8.10
2023-08-26T05:46:32.293Z,7.90
2023-08-26T05:49:04.884Z,9.00
2023-08-26T05:51:37.203Z,7.80
2023-08-26T05:54:09.680Z,7.60
2023-08-26T05:56:41.950Z,7.70
2023-08-26T05:59:14.119Z,8.00
2023-08-26T06:01:46.597Z,10.30
2023-08-26T06:04:19.137Z,7.80
2023-08-26T06:06:51.502Z,7.30
2023-08-26T06:09:24.203Z,7.80
2023-08-26T06:11:56.665Z,7.80
2023-08-26T06:14:29.065Z,7.40
2023-08-26T06:17:01.612Z,7.20
2023-08-26T06:19:34.620Z,6.90
2023-08-26T06:22:07.740Z,6.80
2023-08-26T06:24:41.416Z,6.40
2023-08-26T06:27:13.677Z,6.40
2023-08-26T06:29:56.534Z,6.50
2023-08-26T06:32:28.902Z,6.30
2023-08-26T06:35:01.483Z,5.50
2023-08-26T06:37:33.822Z,5.30
2023-08-26T06:40:07.119Z,5.20
2023-08-26T06:42:39.497Z,5.20
2023-08-26T06:45:16.405Z,5.20
2023-08-26T06:47:50.684Z,5.40
2023-08-26T06:50:24.320Z,5.60
2023-08-26T06:52:56.999Z,5.40
2023-08-26T06:55:29.997Z,4.70
2023-08-26T06:58:02.151Z,4.90
2023-08-26T07:00:34.428Z,5.30
2023-08-26T07:03:07.120Z,5.20
2023-08-26T07:05:39.729Z,4.80
2023-08-26T07:08:12.236Z,4.80
2023-08-26T07:10:46.176Z,4.70
2023-08-26T07:13:18.746Z,4.20
2023-08-26T07:15:50.960Z,5.00
2023-08-26T07:18:23.403Z,4.80
2023-08-26T07:20:55.839Z,4.40
2023-08-26T07:23:28.458Z,4.20
2023-08-26T07:26:00.767Z,4.70
2023-08-26T07:28:33.716Z,5.10
2023-08-26T07:31:09.804Z,4.30
2023-08-26T07:33:42.310Z,4.40
2023-08-26T07:36:14.631Z,4.40
2023-08-26T07:38:46.880Z,4.20
2023-08-26T07:41:20.196Z,4.20
2023-08-26T07:43:52.431Z,4.20
2023-08-26T07:49:00.193Z,4.50
2023-08-26T07:51:32.556Z,4.60
2023-08-26T07:54:04.924Z,4.40
2023-08-26T07:56:37.295Z,4.00
2023-08-26T07:59:09.833Z,4.20
2023-08-26T08:01:42.578Z,4.50
2023-08-26T08:04:15.242Z,4.30
2023-08-26T08:06:47.522Z,4.30
2023-08-26T08:09:19.833Z,4.40
2023-08-26T08:11:52.309Z,4.50
2023-08-26T08:14:24.682Z,4.20
2023-08-26T08:16:57.008Z,4.40
2023-08-26T08:19:29.950Z,4.80
2023-08-26T08:22:02.500Z,4.60
2023-08-26T08:24:34.889Z,5.00
2023-08-26T08:27:07.876Z,4.10
2023-08-26T08:29:40.165Z,4.60
2023-08-26T08:32:12.482Z,4.60
2023-08-26T08:34:44.803Z,4.70
2023-08-26T08:37:17.109Z,4.70
2023-08-26T08:39:49.564Z,4.70
2023-08-26T08:42:24.119Z,4.10
2023-08-26T08:44:59.202Z,4.50
2023-08-26T08:47:31.500Z,4.30
2023-08-26T08:50:04.457Z,4.60
2023-08-26T08:52:38.370Z,4.80
2023-08-26T08:55:11.774Z,4.40
2023-08-26T08:57:45.509Z,4.30
2023-08-26T09:00:19.540Z,4.40
2023-08-26T09:02:54.202Z,4.10
2023-08-26T09:05:26.925Z,4.20
2023-08-26T09:08:00.273Z,4.10
2023-08-26T09:10:33.646Z,4.00
2023-08-26T09:13:06.558Z,4.20
2023-08-26T09:15:39.980Z,3.80
2023-08-26T09:18:15.298Z,3.90
2023-08-26T09:20:49.621Z,4.60
2023-08-26T09:23:21.976Z,4.00
2023-08-26T09:25:59.632Z,3.80
2023-08-26T09:28:32.025Z,4.00
2023-08-26T09:31:09.159Z,3.90
2023-08-26T09:33:41.750Z,3.90
2023-08-26T09:38:51.693Z,3.80
2023-08-26T09:41:24.709Z,3.60
2023-08-26T09:43:59.210Z,3.30
2023-08-26T09:46:36.841Z,3.60
2023-08-26T09:49:09.265Z,3.40
2023-08-26T09:51:47.523Z,3.80
2023-08-26T09:54:22.956Z,3.80
2023-08-26T09:56:55.537Z,3.40
2023-08-26T09:59:28.357Z,3.00
2023-08-26T10:02:05.565Z,3.40
2023-08-26T10:04:40.475Z,3.40
2023-08-26T10:07:12.805Z,3.60
2023-08-26T10:09:52.195Z,3.00
2023-08-26T10:12:33.152Z,3.20
2023-08-26T10:15:08.485Z,3.10
2023-08-26T10:17:43.378Z,3.20
2023-08-26T10:20:16.814Z,3.30
2023-08-26T10:22:49.835Z,2.80
2023-08-26T10:25:23.228Z,2.90
2023-08-26T10:27:56.102Z,3.40
2023-08-26T10:30:29.510Z,3.20
2023-08-26T10:33:06.407Z,3.30
2023-08-26T10:35:43.022Z,3.50
2023-08-26T10:38:16.922Z,4.20
2023-08-26T10:40:49.525Z,3.50
2023-08-26T10:43:22.295Z,4.20
2023-08-26T10:45:56.257Z,4.60
2023-08-26T10:48:29.832Z,4.40
2023-08-26T10:51:05.556Z,4.50
2023-08-26T10:53:46.759Z,4.10
2023-08-26T10:56:22.817Z,4.40
2023-08-26T10:58:55.205Z,4.50
2023-08-26T11:01:28.369Z,4.30
2023-08-26T11:04:01.477Z,4.10
2023-08-26T11:06:39.721Z,4.60
2023-08-26T11:09:14.044Z,4.20
2023-08-26T11:11:47.643Z,4.50
2023-08-26T11:14:19.994Z,4.20
2023-08-26T11:16:54.182Z,4.00
2023-08-26T11:19:27.960Z,4.10
2023-08-26T11:22:03.244Z,4.20
2023-08-26T11:24:36.731Z,4.50
2023-08-26T11:27:12.118Z,4.70
2023-08-26T11:29:45.029Z,4.60
2023-08-26T11:32:17.387Z,4.30
2023-08-26T11:34:50.009Z,3.80
2023-08-26T11:37:25.762Z,4.60
2023-08-26T11:40:02.781Z,4.80
2023-08-26T11:42:35.275Z,4.40
2023-08-26T11:45:12.356Z,4.20
2023-08-26T11:47:45.313Z,4.60
2023-08-26T11:50:20.070Z,4.30
2023-08-26T11:52:52.397Z,4.90
2023-08-26T11:55:29.548Z,4.50
2023-08-26T11:58:03.920Z,4.30
2023-08-26T12:00:39.242Z,5.00
2023-08-26T12:03:11.585Z,4.60
2023-08-26T12:05:50.000Z,4.40
2023-08-26T12:08:24.502Z,4.40
2023-08-26T12:10:59.936Z,4.00
2023-08-26T12:13:42.343Z,4.60
2023-08-26T12:16:16.119Z,4.30
2023-08-26T12:18:50.280Z,4.40
2023-08-26T12:21:22.857Z,4.70
2023-08-26T12:23:55.325Z,5.30
2023-08-26T12:26:27.755Z,4.30
2023-08-26T12:29:00.404Z,4.70
2023-08-26T12:31:36.302Z,4.10
2023-08-26T12:34:08.623Z,4.30
2023-08-26T12:36:40.979Z,4.50
2023-08-26T12:39:13.421Z,5.00
2023-08-26T12:41:46.745Z,5.20
2023-08-26T12:44:20.332Z,5.50
2023-08-26T12:46:53.759Z,5.00
2023-08-26T12:49:27.876Z,6.00
2023-08-26T12:52:00.848Z,5.70
2023-08-26T12:54:33.337Z,4.90
2023-08-26T12:57:05.977Z,4.80
2023-08-26T12:59:38.360Z,5.00
2023-08-26T13:02:11.653Z,4.90
2023-08-26T13:04:44.564Z,4.80
2023-08-26T13:07:18.376Z,4.60
2023-08-26T13:09:50.810Z,5.10
2023-08-26T13:12:23.048Z,5.40
2023-08-26T13:14:55.161Z,4.00
2023-08-26T13:17:28.038Z,4.40
2023-08-26T13:20:00.872Z,4.30
2023-08-26T13:22:33.131Z,4.40
2023-08-26T13:25:05.707Z,5.20
2023-08-26T13:27:38.025Z,4.90
2023-08-26T13:30:11.983Z,4.30
2023-08-26T13:32:44.689Z,15.40
2023-08-26T13:35:17.520Z,5.20
2023-08-26T13:37:50.240Z,4.40
2023-08-26T13:40:22.966Z,4.50
2023-08-26T13:42:57.136Z,5.30
2023-08-26T13:45:29.933Z,4.80
2023-08-26T13:48:02.562Z,4.40
2023-08-26T13:50:35.194Z,4.90
2023-08-26T13:53:07.956Z,4.70
2023-08-26T13:55:40.420Z,4.80
2023-08-26T13:58:12.594Z,5.40
2023-08-26T14:00:45.200Z,4.90
2023-08-26T14:03:17.796Z,4.00
2023-08-26T14:05:52.161Z,4.70
2023-08-26T14:08:24.456Z,5.80
2023-08-26T14:10:57.293Z,5.90
2023-08-26T14:13:29.744Z,5.80
2023-08-26T14:16:02.273Z,5.40
2023-08-26T14:18:34.842Z,5.40
2023-08-26T14:21:07.428Z,5.00
2023-08-26T14:23:39.677Z,4.90
2023-08-26T14:26:11.960Z,4.60
2023-08-26T14:28:44.128Z,4.70
2023-08-26T14:31:16.565Z,5.20
2023-08-26T14:33:49.639Z,5.50
2023-08-26T14:36:22.367Z,5.10
2023-08-26T14:38:55.343Z,5.30
2023-08-26T14:41:27.571Z,4.70
2023-08-26T14:43:59.946Z,4.50
2023-08-26T14:46:33.095Z,4.80
2023-08-26T14:49:05.568Z,4.40
2023-08-26T14:51:38.813Z,4.90
2023-08-26T14:54:11.219Z,4.60
2023-08-26T14:56:44.058Z,4.50
2023-08-26T14:59:16.532Z,4.20
2023-08-26T15:01:48.970Z,5.00
2023-08-26T15:04:21.532Z,5.00
2023-08-26T15:06:54.081Z,4.50
2023-08-26T15:09:26.597Z,4.70
2023-08-26T15:11:58.920Z,4.90
2023-08-26T15:14:31.339Z,5.00
2023-08-26T15:17:04.580Z,5.00
2023-08-26T15:19:36.961Z,4.70
2023-08-26T15:22:09.934Z,4.80
2023-08-26T15:24:42.307Z,4.90
2023-08-26T15:27:15.190Z,5.60
2023-08-26T15:29:47.764Z,5.50
2023-08-26T15:32:20.132Z,5.70
2023-08-26T15:34:52.491Z,5.10
2023-08-26T15:37:25.703Z,5.40
2023-08-26T15:39:58.147Z,5.40
2023-08-26T15:42:30.465Z,5.30
2023-08-26T15:45:02.724Z,5.00
2023-08-26T15:47:35.489Z,6.30
2023-08-26T15:50:09.024Z,5.60
2023-08-26T15:52:41.320Z,5.50
2023-08-26T15:55:13.504Z,5.40
2023-08-26T15:57:46.600Z,5.50
2023-08-26T16:00:19.427Z,5.50
2023-08-26T16:02:51.667Z,5.00
2023-08-26T16:05:23.974Z,5.70
2023-08-26T16:07:56.431Z,5.60
2023-08-26T16:10:28.782Z,4.90
2023-08-26T16:13:01.202Z,5.90
2023-08-26T16:15:34.613Z,5.00
2023-08-26T16:18:07.544Z,6.00
2023-08-26T16:20:39.945Z,5.60
2023-08-26T16:23:12.302Z,5.90
2023-08-26T16:25:44.665Z,5.90
2023-08-26T16:28:17.172Z,5.30
2023-08-26T16:30:49.440Z,5.60
2023-08-26T16:33:24.205Z,5.70
2023-08-26T16:35:58.448Z,5.60
2023-08-26T16:38:31.956Z,5.50
2023-08-26T16:41:04.303Z,7.30
2023-08-26T16:43:36.595Z,6.60
2023-08-26T16:46:09.897Z,6.10
2023-08-26T16:48:44.270Z,7.00
2023-08-26T16:51:16.721Z,6.20
2023-08-26T16:53:49.301Z,6.40
2023-08-26T16:56:21.533Z,5.90
2023-08-26T16:58:53.841Z,5.90
2023-08-26T17:01:26.533Z,6.20
2023-08-26T17:03:58.944Z,5.90
2023-08-26T17:06:31.249Z,5.80
2023-08-26T17:09:03.610Z,6.10
2023-08-26T17:11:36.017Z,5.60
2023-08-26T17:14:08.490Z,5.50
2023-08-26T17:16:40.683Z,6.10
2023-08-26T17:19:12.991Z,5.90
2023-08-26T17:21:46.019Z,6.00
2023-08-26T17:24:18.301Z,6.80
2023-08-26T17:26:50.740Z,5.20
2023-08-26T17:29:23.366Z,6.40
2023-08-26T17:31:55.706Z,6.10
2023-08-26T17:34:28.142Z,6.60
2023-08-26T17:37:00.551Z,6.10
2023-08-26T17:39:33.052Z,6.10
2023-08-26T17:42:06.121Z,6.00
2023-08-26T17:44:39.085Z,6.40
2023-08-26T17:47:11.404Z,7.00
2023-08-26T17:49:43.796Z,6.60
2023-08-26T17:52:16.120Z,8.00
2023-08-26T17:54:48.385Z,8.40
2023-08-26T17:57:20.727Z,8.30
2023-08-26T17:59:53.108Z,9.00
2023-08-26T18:02:25.696Z,9.40
2023-08-26T18:04:58.283Z,9.70
2023-08-26T18:07:30.631Z,8.20
2023-08-26T18:10:03.056Z,8.60
2023-08-26T18:12:35.294Z,9.40
2023-08-26T18:15:08.524Z,10.70
2023-08-26T18:17:41.067Z,9.00
2023-08-26T18:20:14.669Z,8.00
2023-08-26T18:22:46.956Z,9.10
2023-08-26T18:25:19.418Z,9.20
2023-08-26T18:27:51.652Z,8.30
2023-08-26T18:30:24.738Z,8.30
2023-08-26T18:32:57.874Z,8.00
2023-08-26T18:35:30.459Z,8.30
2023-08-26T18:38:02.727Z,9.00
2023-08-26T18:40:35.398Z,8.80
2023-08-26T18:43:08.090Z,8.90
2023-08-26T18:45:40.758Z,9.20
2023-08-26T18:48:13.047Z,10.40
2023-08-26T18:50:45.412Z,9.20
2023-08-26T18:53:17.787Z,9.50
2023-08-26T18:55:53.902Z,9.40
2023-08-26T18:58:27.696Z,10.60
2023-08-26T19:01:00.469Z,14.90
2023-08-26T19:03:32.805Z,12.20
2023-08-26T19:06:08.862Z,12.00
2023-08-26T19:08:41.495Z,11.00
2023-08-26T19:11:13.713Z,12.30
2023-08-26T19:13:46.053Z,12.90
2023-08-26T19:16:18.323Z,17.10
2023-08-26T19:18:51.083Z,15.90
2023-08-26T19:21:24.051Z,14.70
2023-08-26T19:23:56.700Z,14.00
2023-08-26T19:26:30.152Z,11.70
2023-08-26T19:29:02.830Z,12.80
2023-08-26T19:31:36.000Z,12.00
2023-08-26T19:34:08.804Z,11.70
2023-08-26T19:36:41.342Z,11.20
2023-08-26T19:39:15.276Z,10.70
2023-08-26T19:41:47.735Z,11.10
2023-08-26T19:44:19.911Z,11.30
2023-08-26T19:46:52.297Z,11.90
2023-08-26T19:49:25.056Z,10.20
2023-08-26T19:51:57.454Z,9.40
2023-08-26T19:54:29.969Z,9.40
2023-08-26T19:57:10.594Z,10.30
2023-08-26T19:59:43.062Z,11.90
2023-08-26T20:02:15.642Z,11.60
2023-08-26T20:04:50.648Z,12.20
2023-08-26T20:07:23.058Z,11.90
2023-08-26T20:09:56.689Z,12.40
2023-08-26T20:12:30.410Z,12.50
2023-08-26T20:15:05.368Z,12.90
2023-08-26T20:17:38.583Z,12.10
2023-08-26T20:20:12.733Z,10.40
2023-08-26T20:22:44.941Z,10.70
2023-08-26T20:25:17.329Z,10.40
2023-08-26T20:27:49.606Z,11.60
2023-08-26T20:30:22.679Z,11.40
2023-08-26T20:32:54.972Z,11.10
2023-08-26T20:35:27.230Z,10.70
2023-08-26T20:37:59.969Z,10.80
2023-08-26T20:40:32.168Z,10.40
2023-08-26T20:43:04.553Z,10.50
2023-08-26T20:45:36.918Z,10.20
2023-08-26T20:48:42.923Z,11.20
2023-08-26T20:51:15.907Z,11.80
2023-08-26T20:53:49.531Z,13.80
2023-08-26T20:56:21.801Z,12.30
2023-08-26T20:58:54.202Z,13.10
2023-08-26T21:01:28.286Z,12.90
2023-08-26T21:04:00.970Z,13.10
2023-08-26T21:06:33.283Z,12.40
2023-08-26T21:09:05.786Z,11.90
2023-08-26T21:11:38.245Z,12.00
2023-08-26T21:14:10.513Z,13.50
2023-08-26T21:16:42.899Z,14.10
2023-08-26T21:19:15.113Z,13.60
2023-08-26T21:21:47.498Z,11.40
2023-08-26T21:24:19.599Z,11.30
2023-08-26T21:26:51.880Z,11.00
2023-08-26T21:29:24.211Z,11.90
2023-08-26T21:31:56.509Z,11.20
2023-08-26T21:34:28.837Z,12.40
2023-08-26T21:37:01.160Z,11.30
2023-08-26T21:39:33.419Z,10.90
2023-08-26T21:42:06.200Z,10.40
2023-08-26T21:44:38.481Z,10.30
2023-08-26T21:47:11.004Z,11.20
2023-08-26T21:49:43.736Z,10.70
2023-08-26T21:52:16.688Z,12.00
2023-08-26T21:54:49.212Z,11.80
2023-08-26T21:57:21.433Z,11.30
2023-08-26T21:59:53.652Z,11.70
2023-08-26T22:02:26.128Z,13.20
2023-08-26T22:05:00.212Z,13.40
2023-08-26T22:07:32.539Z,12.40
2023-08-26T22:10:05.081Z,13.30
2023-08-26T22:12:37.460Z,13.20
2023-08-26T22:15:10.759Z,13.00
2023-08-26T22:17:43.070Z,13.80
2023-08-26T22:20:15.761Z,16.70
2023-08-26T22:22:48.668Z,14.50
2023-08-26T22:25:21.213Z,10.20
2023-08-26T22:27:53.748Z,5.70
2023-08-26T22:30:26.176Z,5.30
2023-08-26T22:32:58.644Z,5.30
2023-08-26T22:35:31.235Z,6.90
2023-08-26T22:38:03.461Z,7.00
2023-08-26T22:40:35.612Z,7.20
2023-08-26T22:43:08.020Z,6.70
2023-08-26T22:45:40.220Z,7.00
2023-08-26T22:48:13.983Z,5.90
2023-08-26T22:50:46.197Z,5.80
2023-08-26T22:53:19.450Z,5.80
2023-08-26T22:55:51.642Z,5.80
2023-08-26T22:58:24.191Z,5.40
2023-08-26T23:00:57.621Z,5.70
2023-08-26T23:03:29.937Z,6.30
2023-08-26T23:06:06.901Z,6.80
2023-08-26T23:08:39.055Z,5.80
2023-08-26T23:11:11.284Z,6.50
2023-08-26T23:13:43.409Z,8.20
2023-08-26T23:16:15.746Z,7.70
2023-08-26T23:18:48.096Z,8.40
2023-08-26T23:21:20.402Z,12.00
2023-08-26T23:23:52.527Z,10.50
2023-08-26T23:26:25.255Z,10.10
2023-08-26T23:28:57.411Z,10.10
2023-08-26T23:31:29.624Z,9.20
2023-08-26T23:34:15.954Z,9.40
2023-08-26T23:36:51.017Z,9.60
2023-08-26T23:39:24.567Z,8.30
2023-08-26T23:41:56.840Z,8.20
2023-08-26T23:44:29.233Z,6.60
2023-08-26T23:47:01.405Z,5.70
2023-08-26T23:49:33.728Z,4.30
2023-08-26T23:52:06.366Z,5.60
2023-08-26T23:54:38.529Z,4.40
2023-08-26T23:57:11.008Z,5.10
2023-08-26T23:59:43.886Z,4.80
